createdAt,value
2022-11-09T00:00:29.697Z,19.92
2022-11-09T00:02:59.875Z,20.02
2022-11-09T00:05:27.074Z,20.92
2022-11-09T00:07:54.471Z,19.15
2022-11-09T00:10:21.785Z,20.17
2022-11-09T00:12:49.313Z,19.88
2022-11-09T00:15:16.483Z,19.65
2022-11-09T00:17:44.197Z,19.58
2022-11-09T00:20:12.713Z,19.17
2022-11-09T00:22:40.169Z,18.95
2022-11-09T00:25:08.064Z,16.95
2022-11-09T00:27:35.467Z,19.30
2022-11-09T00:30:02.835Z,18.83
2022-11-09T00:32:30.491Z,19.23
2022-11-09T00:34:57.717Z,18.10
2022-11-09T00:37:25.189Z,19.35
2022-11-09T00:39:52.375Z,18.58
2022-11-09T00:42:20.812Z,18.40
2022-11-09T00:44:47.980Z,18.23
2022-11-09T00:47:15.506Z,17.27
2022-11-09T00:49:42.692Z,17.77
2022-11-09T00:52:10.229Z,18.02
2022-11-09T00:54:40.083Z,18.55
2022-11-09T00:57:07.939Z,18.73
2022-11-09T00:59:35.085Z,17.75
2022-11-09T01:02:02.609Z,17.40
2022-11-09T01:04:29.989Z,17.70
2022-11-09T01:06:57.710Z,19.30
2022-11-09T01:09:24.907Z,17.70
2022-11-09T01:11:52.608Z,19.13
2022-11-09T01:14:22.510Z,17.77
2022-11-09T01:16:50.286Z,18.73
2022-11-09T01:19:17.423Z,19.25
2022-11-09T01:21:46.135Z,18.00
2022-11-09T01:24:13.989Z,17.33
2022-11-09T01:26:41.582Z,18.30
2022-11-09T01:29:08.747Z,18.15
2022-11-09T01:31:36.257Z,18.25
2022-11-09T01:34:03.674Z,18.85
2022-11-09T01:36:33.911Z,18.85
2022-11-09T01:39:01.467Z,17.95
2022-11-09T01:41:29.689Z,19.02
2022-11-09T01:44:08.627Z,18.45
2022-11-09T01:46:45.524Z,17.83
2022-11-09T01:49:27.823Z,17.98
2022-11-09T01:52:07.767Z,18.77
2022-11-09T01:54:41.667Z,18.33
2022-11-09T01:57:35.152Z,18.63
2022-11-09T02:00:10.201Z,19.77
2022-11-09T02:02:51.532Z,18.80
2022-11-09T02:05:24.046Z,19.48
2022-11-09T02:07:55.566Z,18.88
2022-11-09T02:10:40.824Z,18.83
2022-11-09T02:13:12.103Z,18.98
2022-11-09T02:15:45.280Z,18.80
2022-11-09T02:18:13.697Z,17.85
2022-11-09T02:20:55.567Z,18.95
2022-11-09T02:23:25.907Z,19.38
2022-11-09T02:26:16.669Z,17.95
2022-11-09T02:28:45.534Z,19.35
2022-11-09T02:31:16.574Z,19.33
2022-11-09T02:34:02.265Z,18.65
2022-11-09T02:36:29.940Z,20.40
2022-11-09T02:38:58.156Z,21.30
2022-11-09T02:41:26.177Z,19.70
2022-11-09T02:43:55.302Z,18.33
2022-11-09T02:46:34.433Z,21.70
2022-11-09T02:49:03.973Z,21.35
2022-11-09T02:51:31.717Z,19.75
2022-11-09T02:53:59.968Z,20.60
2022-11-09T02:56:27.118Z,19.52
2022-11-09T02:58:56.444Z,19.10
2022-11-09T03:01:23.761Z,20.33
2022-11-09T03:03:51.649Z,19.80
2022-11-09T03:06:18.811Z,19.95
2022-11-09T03:08:47.027Z,19.67
2022-11-09T03:11:15.104Z,20.02
2022-11-09T03:13:42.591Z,19.02
2022-11-09T03:16:09.992Z,19.17
2022-11-09T03:18:39.896Z,19.77
2022-11-09T03:21:07.822Z,20.15
2022-11-09T03:23:35.341Z,21.63
2022-11-09T03:26:03.407Z,20.02
2022-11-09T03:28:31.019Z,18.70
2022-11-09T03:30:58.560Z,20.48
2022-11-09T03:33:26.599Z,19.45
2022-11-09T03:35:53.800Z,18.35
2022-11-09T03:38:21.238Z,20.30
2022-11-09T03:40:49.368Z,18.65
2022-11-09T03:43:17.880Z,20.52
2022-11-09T03:45:47.448Z,20.35
2022-11-09T03:48:14.857Z,20.67
2022-11-09T03:50:42.126Z,21.27
2022-11-09T03:53:10.755Z,20.95
2022-11-09T03:55:39.343Z,21.77
2022-11-09T03:58:09.298Z,22.05
2022-11-09T04:00:36.694Z,20.95
2022-11-09T04:03:04.182Z,21.55
2022-11-09T04:05:31.476Z,20.75
2022-11-09T04:07:59.184Z,21.92
2022-11-09T04:10:27.574Z,20.23
2022-11-09T04:12:55.172Z,23.45
2022-11-09T04:15:22.683Z,21.88
2022-11-09T04:17:58.994Z,23.33
2022-11-09T04:20:27.927Z,21.73
2022-11-09T04:23:06.919Z,22.02
2022-11-09T04:25:36.265Z,23.00
2022-11-09T04:28:05.951Z,24.52
2022-11-09T04:30:35.276Z,22.52
2022-11-09T04:33:04.022Z,23.55
2022-11-09T04:35:33.567Z,23.30
2022-11-09T04:38:06.671Z,22.70
2022-11-09T04:40:35.607Z,23.23
2022-11-09T04:43:04.929Z,25.92
2022-11-09T04:45:34.478Z,23.10
2022-11-09T04:48:04.479Z,24.40
2022-11-09T04:50:32.498Z,25.45
2022-11-09T04:53:11.129Z,22.75
2022-11-09T04:55:39.178Z,22.85
2022-11-09T04:58:07.930Z,23.08
2022-11-09T05:00:35.701Z,24.65
2022-11-09T05:03:05.113Z,23.75
2022-11-09T05:05:37.062Z,24.15
2022-11-09T05:08:05.362Z,23.90
2022-11-09T05:10:33.063Z,25.80
2022-11-09T05:13:02.844Z,25.42
2022-11-09T05:15:30.396Z,25.13
2022-11-09T05:17:58.656Z,25.67
2022-11-09T05:20:25.917Z,25.55
2022-11-09T05:23:12.828Z,27.30
2022-11-09T05:25:40.043Z,28.10
2022-11-09T05:28:09.501Z,27.83
2022-11-09T05:30:37.088Z,26.58
2022-11-09T05:33:05.222Z,25.38
2022-11-09T05:35:33.447Z,26.65
2022-11-09T05:38:00.898Z,27.30
2022-11-09T05:40:28.176Z,26.45
2022-11-09T05:42:56.750Z,28.55
2022-11-09T05:45:42.207Z,27.90
2022-11-09T05:48:15.174Z,26.83
2022-11-09T05:50:42.825Z,27.48
2022-11-09T05:53:16.504Z,26.65
2022-11-09T05:55:43.711Z,26.52
2022-11-09T05:58:11.427Z,28.20
2022-11-09T06:00:38.669Z,28.30
2022-11-09T06:03:11.111Z,29.58
2022-11-09T06:05:40.398Z,26.92
2022-11-09T06:08:11.719Z,27.15
2022-11-09T06:10:39.587Z,28.60
2022-11-09T06:13:07.481Z,27.02
2022-11-09T06:15:34.722Z,26.23
2022-11-09T06:18:02.255Z,26.45
2022-11-09T06:20:29.719Z,28.75
2022-11-09T06:23:03.795Z,26.30
2022-11-09T06:25:33.392Z,27.50
2022-11-09T06:28:01.808Z,26.55
2022-11-09T06:30:29.063Z,26.15
2022-11-09T06:33:00.795Z,27.50
2022-11-09T06:35:28.629Z,26.40
2022-11-09T06:37:58.184Z,28.02
2022-11-09T06:40:26.263Z,29.08
2022-11-09T06:42:57.178Z,27.83
2022-11-09T06:45:24.933Z,29.27
2022-11-09T06:47:57.964Z,30.38
2022-11-09T06:50:26.450Z,27.67
2022-11-09T06:52:59.122Z,28.02
2022-11-09T06:55:28.617Z,28.02
2022-11-09T06:57:58.454Z,30.92
2022-11-09T07:00:27.177Z,27.83
2022-11-09T07:02:54.649Z,28.67
2022-11-09T07:05:22.032Z,29.92
2022-11-09T07:07:49.627Z,27.25
2022-11-09T07:10:17.191Z,26.90
2022-11-09T07:12:44.732Z,29.42
2022-11-09T07:15:12.015Z,27.48
2022-11-09T07:17:41.228Z,30.55
2022-11-09T07:20:10.074Z,28.38
2022-11-09T07:22:40.288Z,29.20
2022-11-09T07:25:08.823Z,26.65
2022-11-09T07:27:36.669Z,27.92
2022-11-09T07:30:04.654Z,27.40
2022-11-09T07:35:24.137Z,29.42
2022-11-09T07:37:51.549Z,28.15
2022-11-09T07:40:19.441Z,28.45
2022-11-09T07:42:47.110Z,27.92
2022-11-09T07:45:14.496Z,28.17
2022-11-09T07:47:42.018Z,27.90
2022-11-09T07:50:09.660Z,30.60
2022-11-09T07:52:37.119Z,28.48
2022-11-09T07:55:04.734Z,32.35
2022-11-09T07:57:32.144Z,26.88
2022-11-09T07:59:59.397Z,28.70
2022-11-09T08:02:26.921Z,27.08
2022-11-09T08:04:54.244Z,27.42
2022-11-09T08:07:23.730Z,26.90
2022-11-09T08:09:51.140Z,27.27
2022-11-09T08:12:18.593Z,29.38
2022-11-09T08:14:46.085Z,26.52
2022-11-09T08:17:13.597Z,27.45
2022-11-09T08:19:40.755Z,29.13
2022-11-09T08:22:09.267Z,28.20
2022-11-09T08:24:36.441Z,28.33
2022-11-09T08:27:03.944Z,26.48
2022-11-09T08:29:31.084Z,27.92
2022-11-09T08:31:58.522Z,28.15
2022-11-09T08:34:28.107Z,27.25
2022-11-09T08:36:55.582Z,26.83
2022-11-09T08:39:25.399Z,27.00
2022-11-09T08:41:52.978Z,26.30
2022-11-09T08:44:20.229Z,27.23
2022-11-09T08:46:47.770Z,28.42
2022-11-09T08:49:16.059Z,26.98
2022-11-09T08:51:43.612Z,26.00
2022-11-09T08:54:11.406Z,31.08
2022-11-09T08:56:38.827Z,26.58
2022-11-09T08:59:06.126Z,26.95
2022-11-09T09:01:33.717Z,27.77
2022-11-09T09:04:01.020Z,28.40
2022-11-09T09:06:31.242Z,29.20
2022-11-09T09:08:58.866Z,26.25
2022-11-09T09:11:26.320Z,26.17
2022-11-09T09:13:53.517Z,28.38
2022-11-09T09:16:21.172Z,27.35
2022-11-09T09:18:48.929Z,27.27
2022-11-09T09:21:16.419Z,25.88
2022-11-09T09:23:43.597Z,27.00
2022-11-09T09:26:11.116Z,26.38
2022-11-09T09:28:39.040Z,29.25
2022-11-09T09:31:06.860Z,30.73
2022-11-09T09:33:34.428Z,26.08
2022-11-09T09:36:02.357Z,33.83
2022-11-09T09:38:29.971Z,26.13
2022-11-09T09:40:59.924Z,26.90
2022-11-09T09:43:43.561Z,26.88
2022-11-09T09:46:23.797Z,27.88
2022-11-09T09:49:04.222Z,27.08
2022-11-09T09:51:41.185Z,30.38
2022-11-09T09:54:17.304Z,29.67
2022-11-09T09:56:46.986Z,29.63
2022-11-09T09:59:20.213Z,27.67
2022-11-09T10:01:50.921Z,26.70
2022-11-09T10:04:29.228Z,25.67
2022-11-09T10:07:11.752Z,26.17
2022-11-09T10:09:38.991Z,28.77
2022-11-09T10:12:06.670Z,27.15
2022-11-09T10:14:43.989Z,25.38
2022-11-09T10:17:22.031Z,25.70
2022-11-09T10:20:21.068Z,26.95
2022-11-09T10:22:55.567Z,27.60
2022-11-09T10:25:50.219Z,27.67
2022-11-09T10:28:17.506Z,25.10
2022-11-09T10:30:45.125Z,26.40
2022-11-09T10:33:20.868Z,26.17
2022-11-09T10:35:48.016Z,26.02
2022-11-09T10:38:21.817Z,24.52
2022-11-09T10:41:35.216Z,25.27
2022-11-09T10:44:21.268Z,24.45
2022-11-09T10:47:13.204Z,25.33
2022-11-09T10:50:22.821Z,25.23
2022-11-09T10:53:13.165Z,32.40
2022-11-09T10:56:20.822Z,30.63
2022-11-09T10:59:33.459Z,26.73
2022-11-09T11:02:29.060Z,25.48
2022-11-09T11:05:35.871Z,26.23
2022-11-09T11:08:40.047Z,25.35
2022-11-09T11:11:35.619Z,24.45
2022-11-09T11:14:41.771Z,24.95
2022-11-09T11:17:34.873Z,26.02
2022-11-09T11:20:28.110Z,25.35
2022-11-09T11:23:20.075Z,24.70
2022-11-09T11:26:18.423Z,25.50
2022-11-09T11:31:59.225Z,27.45
2022-11-09T11:35:01.564Z,24.33
2022-11-09T11:38:00.080Z,25.27
2022-11-09T11:41:06.997Z,25.52
2022-11-09T11:44:05.048Z,25.27
2022-11-09T11:50:01.853Z,25.25
2022-11-09T11:56:49.182Z,24.52
2022-11-09T11:59:52.978Z,25.92
2022-11-09T12:02:48.289Z,25.20
2022-11-09T12:05:51.700Z,26.73
2022-11-09T12:09:03.999Z,25.50
2022-11-09T12:12:10.525Z,26.98
2022-11-09T12:15:52.633Z,26.17
2022-11-09T12:19:12.349Z,25.92
2022-11-09T12:25:14.543Z,23.40
2022-11-09T12:28:11.558Z,27.75
2022-11-09T12:31:09.096Z,25.02
2022-11-09T12:34:18.807Z,25.23
2022-11-09T12:37:12.133Z,24.85
2022-11-09T12:40:06.877Z,25.33
2022-11-09T12:43:02.941Z,25.10
2022-11-09T12:45:51.220Z,26.33
2022-11-09T12:48:38.267Z,28.95
2022-11-09T12:51:24.337Z,30.40
2022-11-09T12:54:11.872Z,24.57
2022-11-09T12:57:06.608Z,29.45
2022-11-09T12:59:55.104Z,24.40
2022-11-09T13:02:54.234Z,26.92
2022-11-09T13:05:40.918Z,38.00
2022-11-09T13:08:31.267Z,25.17
2022-11-09T13:11:36.001Z,25.27
2022-11-09T13:14:29.084Z,24.35
2022-11-09T13:17:24.421Z,27.27
2022-11-09T13:20:53.887Z,24.45
2022-11-09T13:24:00.792Z,24.75
2022-11-09T13:26:49.877Z,24.63
2022-11-09T13:29:42.151Z,25.75
2022-11-09T13:32:31.354Z,26.05
2022-11-09T13:35:40.263Z,26.13
2022-11-09T13:38:36.195Z,27.33
2022-11-09T13:41:34.292Z,27.05
2022-11-09T13:44:26.247Z,26.38
2022-11-09T13:47:34.714Z,24.60
2022-11-09T13:50:25.677Z,26.85
2022-11-09T13:53:48.773Z,25.65
2022-11-09T13:56:39.959Z,25.00
2022-11-09T13:59:32.575Z,24.60
2022-11-09T14:02:26.370Z,26.00
2022-11-09T14:05:31.611Z,28.15
2022-11-09T14:08:23.125Z,26.65
2022-11-09T14:11:34.113Z,28.05
2022-11-09T14:14:40.619Z,27.13
2022-11-09T14:17:36.406Z,26.85
2022-11-09T14:20:41.740Z,26.42
2022-11-09T14:23:32.960Z,29.63
2022-11-09T14:26:22.745Z,27.65
2022-11-09T14:29:24.315Z,26.73
2022-11-09T14:32:29.182Z,27.42
2022-11-09T14:35:32.221Z,26.55
2022-11-09T14:38:33.394Z,27.10
2022-11-09T14:41:22.997Z,27.58
2022-11-09T14:44:28.267Z,26.98
2022-11-09T14:47:36.777Z,26.25
2022-11-09T14:50:42.605Z,27.48
2022-11-09T14:53:36.336Z,27.45
2022-11-09T14:56:23.404Z,26.15
2022-11-09T14:59:14.606Z,27.88
2022-11-09T15:02:06.008Z,28.50
2022-11-09T15:05:04.059Z,29.50
2022-11-09T15:07:49.879Z,28.08
2022-11-09T15:10:36.780Z,27.60
2022-11-09T15:13:37.431Z,29.88
2022-11-09T15:16:28.013Z,27.98
2022-11-09T15:19:43.884Z,28.42
2022-11-09T15:22:52.828Z,27.75
2022-11-09T15:25:47.129Z,27.50
2022-11-09T15:28:43.016Z,28.77
2022-11-09T15:31:28.869Z,47.70
2022-11-09T15:34:22.717Z,36.28
2022-11-09T15:37:29.493Z,28.63
2022-11-09T15:40:19.936Z,27.92
2022-11-09T15:43:06.101Z,29.25
2022-11-09T15:45:52.136Z,30.83
2022-11-09T15:48:40.025Z,28.75
2022-11-09T15:51:29.345Z,29.35
2022-11-09T15:54:15.544Z,30.55
2022-11-09T15:57:02.102Z,29.80
2022-11-09T15:59:49.911Z,30.88
2022-11-09T16:02:35.690Z,31.25
2022-11-09T16:05:23.308Z,33.05
2022-11-09T16:08:09.591Z,32.97
2022-11-09T16:10:55.391Z,30.25
2022-11-09T16:13:41.798Z,28.75
2022-11-09T16:16:27.959Z,31.25
2022-11-09T16:19:14.673Z,29.45
2022-11-09T16:22:02.332Z,31.50
2022-11-09T16:24:48.594Z,31.88
2022-11-09T16:27:50.934Z,32.80
2022-11-09T16:30:38.858Z,33.80
2022-11-09T16:33:26.087Z,30.92
2022-11-09T16:36:20.410Z,30.30
2022-11-09T16:39:09.422Z,30.15
2022-11-09T16:41:56.699Z,29.15
2022-11-09T16:44:44.050Z,30.60
2022-11-09T16:47:30.473Z,30.17
2022-11-09T16:50:16.660Z,29.05
2022-11-09T16:53:02.499Z,31.27
2022-11-09T16:55:48.106Z,29.48
2022-11-09T16:58:34.429Z,29.88
2022-11-09T17:01:23.444Z,32.75
2022-11-09T17:04:10.241Z,30.88
2022-11-09T17:06:55.810Z,30.52
2022-11-09T17:09:42.043Z,33.72
2022-11-09T17:12:29.525Z,31.23
2022-11-09T17:15:15.426Z,32.60
2022-11-09T17:18:01.091Z,31.65
2022-11-09T17:20:49.460Z,32.65
2022-11-09T17:23:35.226Z,31.73
2022-11-09T17:26:22.242Z,31.90
2022-11-09T17:29:08.081Z,30.95
2022-11-09T17:31:53.986Z,31.55
2022-11-09T17:34:40.282Z,31.00
2022-11-09T17:37:26.405Z,29.80
2022-11-09T17:40:11.998Z,31.00
2022-11-09T17:42:57.873Z,30.58
2022-11-09T17:45:43.681Z,31.65
2022-11-09T17:48:29.492Z,30.40
2022-11-09T17:51:17.448Z,31.77
2022-11-09T17:54:04.653Z,29.48
2022-11-09T17:56:51.545Z,30.92
2022-11-09T17:59:37.305Z,28.92
2022-11-09T18:02:24.006Z,29.40
2022-11-09T18:05:11.341Z,30.85
2022-11-09T18:07:57.469Z,30.90
2022-11-09T18:10:45.465Z,31.98
2022-11-09T18:13:31.632Z,32.67
2022-11-09T18:16:20.285Z,30.60
2022-11-09T18:19:06.129Z,31.10
2022-11-09T18:21:52.014Z,31.83
2022-11-09T18:24:37.918Z,29.40
2022-11-09T18:27:29.073Z,30.38
2022-11-09T18:30:17.721Z,30.83
2022-11-09T18:33:04.152Z,30.65
2022-11-09T18:36:18.568Z,31.23
2022-11-09T18:39:04.788Z,31.60
2022-11-09T18:41:52.165Z,30.75
2022-11-09T18:44:38.194Z,31.25
2022-11-09T18:47:25.492Z,30.60
2022-11-09T18:50:11.761Z,29.98
2022-11-09T18:52:57.379Z,32.40
2022-11-09T18:55:43.592Z,35.20
2022-11-09T18:58:30.938Z,33.88
2022-11-09T19:04:02.842Z,33.40
2022-11-09T19:06:48.899Z,34.78
2022-11-09T19:09:38.956Z,33.78
2022-11-09T19:12:25.246Z,33.70
2022-11-09T19:15:11.481Z,33.40
2022-11-09T19:17:57.983Z,34.53
2022-11-09T19:20:44.077Z,34.22
2022-11-09T19:23:34.445Z,33.90
2022-11-09T19:26:22.230Z,32.78
2022-11-09T19:29:12.753Z,32.92
2022-11-09T19:31:58.905Z,31.75
2022-11-09T19:34:46.232Z,37.58
2022-11-09T19:37:32.009Z,31.83
2022-11-09T19:40:18.109Z,33.40
2022-11-09T19:43:03.462Z,34.42
2022-11-09T19:45:49.572Z,32.08
2022-11-09T19:48:36.098Z,33.70
2022-11-09T19:51:22.600Z,32.03
2022-11-09T19:54:10.347Z,35.72
2022-11-09T19:56:56.791Z,34.17
2022-11-09T19:59:42.363Z,32.60
2022-11-09T20:02:28.550Z,32.75
2022-11-09T20:05:14.007Z,35.33
2022-11-09T20:08:02.101Z,32.90
2022-11-09T20:10:47.968Z,33.17
2022-11-09T20:13:35.136Z,34.17
2022-11-09T20:16:20.885Z,32.67
2022-11-09T20:19:11.512Z,32.78
2022-11-09T20:21:57.031Z,32.65
2022-11-09T20:24:42.823Z,31.77
2022-11-09T20:27:32.107Z,32.67
2022-11-09T20:30:19.072Z,34.50
2022-11-09T20:33:05.071Z,33.17
2022-11-09T20:35:55.847Z,32.00
2022-11-09T20:38:41.961Z,31.88
2022-11-09T20:41:29.327Z,34.45
2022-11-09T20:44:16.203Z,38.00
2022-11-09T20:47:02.089Z,33.05
2022-11-09T20:49:48.493Z,32.72
2022-11-09T20:52:34.494Z,32.60
2022-11-09T20:55:20.338Z,33.78
2022-11-09T20:58:07.156Z,34.20
2022-11-09T21:01:20.153Z,34.13
2022-11-09T21:04:06.729Z,34.92
2022-11-09T21:06:52.484Z,32.83
2022-11-09T21:09:38.528Z,34.17
2022-11-09T21:12:27.869Z,34.85
2022-11-09T21:15:16.752Z,33.55
2022-11-09T21:18:02.480Z,33.22
2022-11-09T21:20:48.294Z,33.45
2022-11-09T21:23:52.742Z,35.28
2022-11-09T21:26:57.586Z,34.97
2022-11-09T21:29:52.825Z,34.00
2022-11-09T21:32:39.255Z,35.40
2022-11-09T21:35:25.546Z,37.85
2022-11-09T21:38:11.206Z,37.78
2022-11-09T21:41:05.406Z,60.92
2022-11-09T21:43:55.298Z,40.47
2022-11-09T21:46:42.276Z,35.70
2022-11-09T21:49:28.615Z,36.28
2022-11-09T21:52:14.337Z,35.00
2022-11-09T21:55:00.267Z,34.22
2022-11-09T21:57:48.958Z,34.53
2022-11-09T22:00:34.955Z,35.03
2022-11-09T22:03:21.006Z,33.60
2022-11-09T22:06:10.954Z,33.30
2022-11-09T22:08:56.915Z,34.83
2022-11-09T22:12:01.535Z,33.10
2022-11-09T22:15:05.713Z,35.83
2022-11-09T22:17:53.879Z,33.90
2022-11-09T22:20:55.319Z,34.10
2022-11-09T22:23:41.551Z,34.08
2022-11-09T22:26:28.514Z,34.63
2022-11-09T22:29:14.783Z,32.22
2022-11-09T22:32:00.611Z,33.85
2022-11-09T22:34:46.799Z,34.72
2022-11-09T22:37:32.141Z,36.22
2022-11-09T22:40:18.582Z,34.53
2022-11-09T22:43:04.403Z,33.35
2022-11-09T22:45:50.202Z,33.72
2022-11-09T22:48:37.131Z,35.58
2022-11-09T22:51:23.347Z,34.75
2022-11-09T22:54:08.982Z,35.67
2022-11-09T22:56:54.892Z,34.53
2022-11-09T22:59:41.694Z,35.55
2022-11-09T23:02:28.455Z,33.88
2022-11-09T23:05:14.580Z,34.78
2022-11-09T23:08:00.504Z,34.50
2022-11-09T23:10:55.051Z,35.08
2022-11-09T23:13:41.787Z,34.92
2022-11-09T23:16:27.283Z,34.33
2022-11-09T23:19:12.985Z,35.08
2022-11-09T23:21:58.693Z,35.85
2022-11-09T23:25:02.755Z,34.53
2022-11-09T23:27:51.899Z,34.30
2022-11-09T23:30:38.460Z,34.33
2022-11-09T23:33:24.679Z,37.72
2022-11-09T23:36:10.857Z,33.83
2022-11-09T23:38:56.215Z,34.33
2022-11-09T23:41:41.872Z,34.53
2022-11-09T23:44:27.412Z,35.80
2022-11-09T23:47:14.060Z,35.23
2022-11-09T23:50:00.033Z,34.72
2022-11-09T23:52:46.386Z,35.88
2022-11-09T23:55:31.783Z,34.40
2022-11-09T23:58:17.641Z,35.28
